RKSO/OSN METAR and TAF weather

Enter ICAO airport designator
Station Type Date Time Source
RKSO METAR 2022/07/03 13:58 UTC NOAA

RKSO 031358Z AUTO 24003KT 10SM BKN070 28/24 A2973 RMK AO2 SLP070 T02750235 TSNO $


Station Type Date Time Source
RKSO Decoded METAR 2022/07/03 13:58 UTC NOAA

Osan Ab, Korea, South (RKSO) 37-06N 127-02E 12M
Jul 03, 2022 - 09:58 AM EDT / 2022.07.03 1358 UTC
Wind: from the WSW (240 degrees) at 3 MPH (3 KT):0
Visibility: 10 mile(s):0
Sky conditions: mostly cloudy
Temperature: 81.5 F (27.5 C)
Dew Point: 74.3 F (23.5 C)
Relative Humidity: 78%
Pressure (altimeter): 29.73 in. Hg (1006 hPa)
ob: RKSO 031358Z AUTO 24003KT 10SM BKN070 28/24 A2973 RMK AO2 SLP070 T02750235 TSNO
cycle: 14

Station Type Date Time Source
RKSO TAF 2022/07/03 13:42 UTC NOAA

TAF TAF RKSO 031300Z 0313/0419 VRB06KT 4800 BR BKN045 QNH2973INS
BECMG 0321/0322 VRB06KT 8000 BR BKN035 QNH2967INS
BECMG 0406/0407 VRB06KT 9000 BR VCTS BKN030CB QNH2965INS
TEMPO 0407/0412 VRB20G25KT 6000 -TSRA OVC025CB
BECMG 0412/0413 VRB06KT 9000 BR SCT030 QNH2968INS TX31/0407Z TN23/0318Z LAST NO
AMDS AFT 0313 NEXT 0415

Example: see airport list